Time;durP1;ratioP1;P1;durP2;ratioP2;P2;SDS_P1;SDS_P2;PMS_P1;PMS_P2;Temp;Humidity;BMP_temperature;BMP_pressure;BME280_temperature;BME280_humidity;BME280_pressure;Samples;Min_cycle;Max_cycle;Signal;HPM_P1;HPM_P2
2022/12/03 00:00:15;;;;;;;44.58;24.33;;;;;;;3.59;100.00;93765.81;5109516;28;20465;-70
2022/12/03 00:02:42;;;;;;;40.25;21.73;;;;;;;3.54;100.00;93771.38;5108900;28;20094;-70
2022/12/03 00:05:09;;;;;;;37.40;20.88;;;;;;;3.51;100.00;93776.75;5109289;28;20108;-70
2022/12/03 00:07:36;;;;;;;33.50;19.52;;;;;;;3.47;100.00;93785.59;5106680;28;20573;-70
2022/12/03 00:10:03;;;;;;;35.05;19.73;;;;;;;3.41;100.00;93788.75;5109112;28;20051;-70
2022/12/03 00:12:31;;;;;;;33.63;19.77;;;;;;;3.37;100.00;93790.03;5109292;28;20047;-70
2022/12/03 00:14:58;;;;;;;33.70;19.63;;;;;;;3.35;100.00;93790.16;5109331;28;20048;-70
2022/12/03 00:17:25;;;;;;;37.63;21.00;;;;;;;3.21;100.00;93756.75;5109186;28;20047;-70
2022/12/03 00:19:51;;;;;;;31.17;19.58;;;;;;;3.34;100.00;93791.13;5109295;28;20047;-70
2022/12/03 00:22:18;;;;;;;33.67;18.58;;;;;;;3.38;100.00;93797.47;5108880;28;20035;-70
2022/12/03 00:24:45;;;;;;;32.50;19.17;;;;;;;3.37;100.00;93795.88;5109035;28;20105;-70
2022/12/03 00:27:12;;;;;;;41.55;22.35;;;;;;;3.33;100.00;93794.59;5109209;28;20104;-70
2022/12/03 00:29:40;;;;;;;33.75;19.60;;;;;;;3.36;100.00;93806.19;5109185;28;20047;-69
2022/12/03 00:32:07;;;;;;;40.67;21.67;;;;;;;3.35;100.00;93807.94;5108953;28;20043;-69
2022/12/03 00:34:33;;;;;;;45.58;24.10;;;;;;;3.33;100.00;93797.13;5108868;28;20043;-69
2022/12/03 00:37:00;;;;;;;65.35;30.98;;;;;;;3.32;100.00;93805.69;5109392;28;20059;-69
2022/12/03 00:39:27;;;;;;;40.90;21.00;;;;;;;3.21;100.00;93792.31;5108441;28;20048;-69
2022/12/03 00:41:53;;;;;;;40.17;22.15;;;;;;;3.27;100.00;93811.22;5109178;28;20043;-69
2022/12/03 00:44:20;;;;;;;34.35;20.02;;;;;;;3.26;100.00;93812.19;5109141;28;20043;-69
2022/12/03 00:46:48;;;;;;;37.63;19.98;;;;;;;3.27;100.00;93810.41;5110842;28;20047;-70
2022/12/03 00:49:15;;;;;;;30.05;18.20;;;;;;;3.26;100.00;93816.44;5112805;28;20051;-69
2022/12/03 00:51:42;;;;;;;32.17;18.15;;;;;;;3.24;100.00;93823.44;5112673;28;20105;-70
2022/12/03 00:54:08;;;;;;;26.85;16.48;;;;;;;3.21;100.00;93820.22;5112729;28;20591;-70
2022/12/03 00:56:35;;;;;;;32.13;17.42;;;;;;;3.13;100.00;93830.34;5112394;28;20044;-70
2022/12/03 00:59:02;;;;;;;29.23;17.42;;;;;;;3.12;100.00;93833.03;5112406;28;20113;-69
2022/12/03 01:01:28;;;;;;;30.38;16.88;;;;;;;3.06;100.00;93839.50;5112610;28;20104;-70
2022/12/03 01:03:56;;;;;;;31.95;16.98;;;;;;;3.04;100.00;93829.50;5112617;28;20876;-70
2022/12/03 01:06:23;;;;;;;50.78;21.52;;;;;;;3.04;100.00;93833.75;5112119;28;20071;-69
2022/12/03 01:08:50;;;;;;;78.93;33.55;;;;;;;3.01;100.00;93839.91;5112401;28;20047;-70
2022/12/03 01:14:01;;;;;;;35.67;20.02;;;;;;;2.99;100.00;93828.31;5112188;28;20414;-70
2022/12/03 01:16:27;;;;;;;37.22;19.58;;;;;;;2.96;100.00;93834.50;5111942;28;20051;-70
2022/12/03 01:18:55;;;;;;;43.25;22.48;;;;;;;2.97;100.00;93836.09;5112327;28;20457;-70
2022/12/03 01:21:22;;;;;;;32.05;17.65;;;;;;;2.98;100.00;93842.78;5112018;28;20048;-70
2022/12/03 01:23:49;;;;;;;31.38;17.60;;;;;;;2.92;100.00;93840.81;5108935;28;20560;-70
2022/12/03 01:26:15;;;;;;;32.60;17.20;;;;;;;2.90;100.00;93832.53;5111881;27;20051;-70
2022/12/03 01:28:42;;;;;;;25.02;16.38;;;;;;;2.86;100.00;93833.81;5111640;28;20051;-70
2022/12/03 01:33:53;;;;;;;264.33;66.38;;;;;;;2.86;100.00;93829.50;5111735;28;20415;-70
2022/12/03 01:36:22;;;;;;;33.30;18.80;;;;;;;2.87;100.00;93827.78;5111602;28;20487;-70
2022/12/03 01:38:48;;;;;;;38.60;19.05;;;;;;;2.84;100.00;93828.06;5111525;28;20051;-70
2022/12/03 01:41:16;;;;;;;23.65;14.40;;;;;;;2.77;100.00;93820.22;5111496;28;20048;-70
2022/12/03 01:43:43;;;;;;;24.17;14.93;;;;;;;2.83;100.00;93821.38;5111340;28;20075;-70
2022/12/03 01:46:13;;;;;;;22.92;14.27;;;;;;;2.85;100.00;93824.56;5111872;28;20124;-70
2022/12/03 01:48:40;;;;;;;26.65;16.67;;;;;;;2.86;100.00;93828.72;5111240;28;20043;-70
2022/12/03 01:51:07;;;;;;;22.63;15.27;;;;;;;2.82;100.00;93822.34;5111460;28;20089;-70
2022/12/03 01:53:35;;;;;;;21.35;12.77;;;;;;;2.76;100.00;93823.72;5111352;28;20096;-70
2022/12/03 01:56:02;;;;;;;20.80;14.05;;;;;;;2.75;100.00;93828.00;5111362;28;20052;-70
2022/12/03 01:58:29;;;;;;;19.35;12.35;;;;;;;2.72;100.00;93830.81;5111055;28;20519;-70
2022/12/03 02:00:57;;;;;;;20.27;13.13;;;;;;;2.72;100.00;93835.13;5111550;28;20157;-70
2022/12/03 02:03:26;;;;;;;24.23;12.82;;;;;;;2.72;100.00;93827.50;5110896;28;20089;-70
2022/12/03 02:05:53;;;;;;;23.10;14.85;;;;;;;2.69;100.00;93820.16;5111434;28;20047;-70
2022/12/03 02:08:33;;;;;;;36.72;23.60;;;;;;;2.66;100.00;93823.78;5111407;28;20108;-70
2022/12/03 02:11:05;;;;;;;17.17;10.93;;;;;;;2.63;100.00;93817.28;5111456;28;20055;-70
2022/12/03 02:13:32;;;;;;;19.10;12.48;;;;;;;2.64;100.00;93829.00;5111219;28;20048;-70
2022/12/03 02:15:59;;;;;;;17.75;12.02;;;;;;;2.64;100.00;93825.69;5111282;28;20063;-70
2022/12/03 02:18:26;;;;;;;43.47;29.48;;;;;;;2.63;100.00;93817.28;5110958;28;20089;-70
2022/12/03 02:21:02;;;;;;;15.70;11.82;;;;;;;2.63;100.00;93821.53;5110933;28;20568;-70
2022/12/03 02:23:36;;;;;;;20.13;13.32;;;;;;;2.59;100.00;93828.63;5110867;28;20040;-70
2022/12/03 02:26:04;;;;;;;20.85;14.07;;;;;;;2.57;100.00;93822.13;5110796;27;20055;-70
2022/12/03 02:28:31;;;;;;;18.58;12.90;;;;;;;2.59;100.00;93827.88;5110475;28;20491;-70
2022/12/03 02:30:57;;;;;;;21.17;14.35;;;;;;;2.58;100.00;93821.19;5110914;28;20051;-69
2022/12/03 02:33:24;;;;;;;20.98;13.57;;;;;;;2.57;100.00;93822.13;5110511;28;20040;-69
2022/12/03 02:35:51;;;;;;;20.67;12.68;;;;;;;2.59;100.00;93820.25;5110731;28;20051;-69
2022/12/03 02:38:21;;;;;;;19.40;13.35;;;;;;;2.61;100.00;93819.16;5110193;28;20104;-69
2022/12/03 02:40:52;;;;;;;22.52;15.25;;;;;;;2.50;100.00;93816.84;5110949;28;20451;-69
2022/12/03 02:43:20;;;;;;;23.70;16.70;;;;;;;2.61;100.00;93838.66;5111327;28;20047;-69
2022/12/03 02:45:50;;;;;;;23.83;16.15;;;;;;;2.58;100.00;93827.06;5110480;28;20044;-69
2022/12/03 02:48:19;;;;;;;20.05;13.23;;;;;;;2.55;100.00;93829.91;5111045;28;20040;-69
2022/12/03 02:50:48;;;;;;;18.15;12.30;;;;;;;2.54;100.00;93839.22;5111201;28;20051;-69
2022/12/03 02:53:19;;;;;;;18.40;11.77;;;;;;;2.53;100.00;93834.28;5110589;28;20047;-69
2022/12/03 02:55:47;;;;;;;19.05;12.85;;;;;;;2.50;100.00;93815.09;5110589;28;20051;-69
2022/12/03 02:58:15;;;;;;;15.38;10.60;;;;;;;2.49;100.00;93822.84;5110606;28;20821;-69
2022/12/03 03:00:43;;;;;;;14.65;10.77;;;;;;;2.45;100.00;93822.34;5110791;28;20120;-69
2022/12/03 03:03:10;;;;;;;17.90;12.38;;;;;;;2.46;100.00;93834.06;5105563;28;20097;-69
2022/12/03 03:05:40;;;;;;;15.63;10.82;;;;;;;2.44;100.00;93822.50;5109148;28;20044;-69
2022/12/03 03:08:08;;;;;;;16.08;10.93;;;;;;;2.43;100.00;93821.69;5110396;28;20485;-70
2022/12/03 03:10:37;;;;;;;16.63;11.77;;;;;;;2.40;100.00;93825.31;5110163;28;20075;-70
2022/12/03 03:13:09;;;;;;;16.42;12.15;;;;;;;2.34;100.00;93815.75;5110333;28;20454;-70
2022/12/03 03:15:37;;;;;;;26.55;16.08;;;;;;;2.35;100.00;93808.91;5110503;28;20055;-70
2022/12/03 03:18:05;;;;;;;18.80;12.27;;;;;;;2.29;100.00;93804.44;5109635;28;20044;-70
2022/12/03 03:20:32;;;;;;;15.77;11.00;;;;;;;2.28;100.00;93813.78;5110485;28;20040;-70
2022/12/03 03:23:05;;;;;;;17.38;12.30;;;;;;;2.30;100.00;93827.09;5110010;28;20044;-70
2022/12/03 03:25:32;;;;;;;18.55;12.43;;;;;;;2.32;100.00;93821.91;5110105;28;20502;-70
2022/12/03 03:27:59;;;;;;;18.42;11.95;;;;;;;2.30;100.00;93818.72;5110332;28;20047;-70
2022/12/03 03:30:26;;;;;;;15.90;11.05;;;;;;;2.28;100.00;93821.41;5110018;28;20104;-70
2022/12/03 03:32:52;;;;;;;20.30;12.38;;;;;;;2.30;100.00;93816.19;5110223;28;20445;-70
2022/12/03 03:35:21;;;;;;;17.25;11.35;;;;;;;2.33;100.00;93819.22;5110167;28;20108;-70
2022/12/03 03:37:47;;;;;;;19.23;12.27;;;;;;;2.31;100.00;93815.25;5109771;28;20498;-70
2022/12/03 03:40:14;;;;;;;18.27;12.25;;;;;;;2.33;100.00;93824.31;5110036;28;20100;-70
2022/12/03 03:42:41;;;;;;;20.95;14.07;;;;;;;2.36;100.00;93823.22;5109987;28;20080;-70
2022/12/03 03:45:09;;;;;;;19.98;12.85;;;;;;;2.38;100.00;93816.25;5110274;28;20051;-70
2022/12/03 03:47:36;;;;;;;22.08;14.38;;;;;;;2.26;100.00;93808.84;5110167;28;20101;-70
2022/12/03 03:50:04;;;;;;;21.20;14.18;;;;;;;2.37;100.00;93825.59;5109700;28;20077;-70
2022/12/03 03:52:32;;;;;;;23.45;13.85;;;;;;;2.31;100.00;93817.78;5110173;28;20051;-70
2022/12/03 03:54:59;;;;;;;23.90;13.68;;;;;;;2.44;100.00;93835.97;5110159;28;20105;-70
2022/12/03 03:57:26;;;;;;;23.42;14.38;;;;;;;2.43;100.00;93828.50;5109987;28;20043;-70
2022/12/03 03:59:53;;;;;;;23.60;14.15;;;;;;;2.36;100.00;93833.34;5110203;28;20043;-70
2022/12/03 04:02:21;;;;;;;23.85;14.15;;;;;;;2.38;100.00;93842.41;5109596;28;20039;-70
2022/12/03 04:04:48;;;;;;;24.75;14.15;;;;;;;2.35;100.00;93854.56;5109489;28;20093;-70
2022/12/03 04:07:15;;;;;;;26.77;15.05;;;;;;;2.24;100.00;93838.63;5095569;28;20047;-70
2022/12/03 04:09:44;;;;;;;25.48;14.73;;;;;;;2.37;100.00;93853.47;5110191;28;20733;-70
2022/12/03 04:14:55;;;;;;;27.35;15.38;;;;;;;2.38;100.00;93852.56;5109792;28;20054;-70
2022/12/03 04:17:22;;;;;;;25.13;15.20;;;;;;;2.36;100.00;93858.72;5109860;28;20044;-70
2022/12/03 04:19:49;;;;;;;23.38;14.02;;;;;;;2.11;100.00;93821.22;5109805;28;20051;-70
2022/12/03 04:30:26;;;;;;;23.65;15.73;;;;;;;2.36;100.00;93861.25;5112902;28;20403;-69
2022/12/03 04:35:42;;;;;;;26.40;14.93;;;;;;;2.35;100.00;93844.41;5113431;28;20055;-70
2022/12/03 04:38:09;;;;;;;25.70;14.73;;;;;;;2.39;100.00;93838.94;5113520;28;20055;-70
2022/12/03 04:43:27;;;;;;;24.98;13.57;;;;;;;2.42;100.00;93834.50;5102112;28;20165;-70
2022/12/03 04:45:54;;;;;;;25.60;13.90;;;;;;;2.38;100.00;93819.59;5112530;28;20096;-69
2022/12/03 04:48:20;;;;;;;23.73;13.77;;;;;;;2.42;100.00;93817.56;5113161;28;20048;-70
2022/12/03 04:50:47;;;;;;;23.13;14.10;;;;;;;2.47;100.00;93827.25;5112814;28;20048;-69
2022/12/03 04:53:14;;;;;;;23.23;13.57;;;;;;;2.36;100.00;93820.69;5112318;28;20047;-70
2022/12/03 04:55:42;;;;;;;25.25;14.98;;;;;;;2.50;100.00;93832.06;5113018;28;20043;-69
2022/12/03 04:58:09;;;;;;;23.85;13.95;;;;;;;2.54;100.00;93830.81;5112776;28;20059;-69
2022/12/03 05:00:36;;;;;;;23.75;14.98;;;;;;;2.54;100.00;93831.63;5112615;28;20044;-69
2022/12/03 05:03:03;;;;;;;24.70;15.48;;;;;;;2.60;100.00;93844.66;5112346;28;20551;-69
2022/12/03 05:05:29;;;;;;;32.08;17.05;;;;;;;2.59;100.00;93845.63;5112336;28;20101;-69
2022/12/03 05:07:56;;;;;;;33.75;17.52;;;;;;;2.63;100.00;93837.56;5112634;28;20043;-69
2022/12/03 05:10:23;;;;;;;46.88;29.27;;;;;;;2.62;100.00;93848.66;5112658;28;20051;-69
2022/12/03 05:12:51;;;;;;;49.55;24.80;;;;;;;2.56;100.00;93844.16;5112723;28;20048;-69
2022/12/03 05:15:18;;;;;;;53.88;24.23;;;;;;;2.59;100.00;93843.84;5112571;28;20043;-69
2022/12/03 05:17:44;;;;;;;38.47;20.17;;;;;;;2.64;100.00;93838.38;5112204;28;20047;-70
2022/12/03 05:22:57;;;;;;;;;;;;;;;2.63;100.00;93849.44;5112608;28;20070;-69
2022/12/03 05:25:26;;;;;;;33.35;19.15;;;;;;;2.57;100.00;93842.41;5111996;28;19963;-69
2022/12/03 05:27:54;;;;;;;31.13;17.77;;;;;;;2.58;100.00;93842.28;5111779;28;20088;-70
2022/12/03 05:30:21;;;;;;;30.60;18.17;;;;;;;2.60;100.00;93847.19;5109082;28;20096;-71
2022/12/03 05:32:48;;;;;;;32.80;20.75;;;;;;;2.61;100.00;93853.88;5111874;28;20460;-70
2022/12/03 05:35:15;;;;;;;30.35;18.05;;;;;;;2.64;100.00;93853.59;5096079;28;20051;-70
2022/12/03 05:37:42;;;;;;;28.08;17.48;;;;;;;2.66;100.00;93860.13;5101796;28;20120;-70
2022/12/03 05:40:10;;;;;;;29.88;17.52;;;;;;;2.67;100.00;93859.16;5107373;28;20052;-70
2022/12/03 05:42:56;;;;;;;33.42;19.60;;;;;;;2.67;100.00;93866.78;5106419;28;20074;-70
2022/12/03 05:45:26;;;;;;;34.00;17.52;;;;;;;2.71;100.00;93869.00;5098041;28;20167;-70
2022/12/03 05:47:53;;;;;;;44.70;25.48;;;;;;;2.72;100.00;93870.63;5111994;28;20514;-70
2022/12/03 05:50:20;;;;;;;50.67;26.88;;;;;;;2.60;100.00;93860.66;5112057;28;20096;-70
2022/12/03 05:52:47;;;;;;;77.15;39.17;;;;;;;2.72;100.00;93876.47;5105354;27;20039;-70
2022/12/03 05:55:14;;;;;;;62.38;33.72;;;;;;;2.77;100.00;93874.31;5111783;28;20069;-70
2022/12/03 05:57:41;;;;;;;136.93;62.13;;;;;;;2.76;100.00;93879.53;5111910;28;20566;-70
2022/12/03 06:00:13;;;;;;;75.68;37.97;;;;;;;2.75;100.00;93875.41;5111886;28;20066;-70
2022/12/03 06:02:41;;;;;;;64.45;33.65;;;;;;;2.76;100.00;93877.78;5112316;28;20058;-69
2022/12/03 06:05:08;;;;;;;92.43;59.17;;;;;;;2.75;100.00;93876.22;5111461;28;20077;-69
2022/12/03 06:07:35;;;;;;;74.75;39.50;;;;;;;2.72;100.00;93875.69;5110548;28;20096;-69
2022/12/03 06:10:02;;;;;;;71.20;37.72;;;;;;;2.74;100.00;93887.28;5106332;28;20579;-69
2022/12/03 06:12:29;;;;;;;56.75;32.22;;;;;;;2.76;100.00;93892.22;5111700;28;20097;-69
2022/12/03 06:14:55;;;;;;;56.63;30.98;;;;;;;2.76;100.00;93893.00;5111774;27;20043;-69
2022/12/03 06:17:22;;;;;;;60.38;33.28;;;;;;;2.79;100.00;93897.78;5111624;28;20470;-69
2022/12/03 06:19:50;;;;;;;76.25;52.83;;;;;;;2.83;100.00;93897.50;5111705;28;20047;-69
2022/12/03 06:22:17;;;;;;;78.22;48.50;;;;;;;2.79;100.00;93885.09;5107900;28;20039;-70
2022/12/03 06:24:44;;;;;;;56.35;35.10;;;;;;;2.85;100.00;93895.63;5109025;28;20055;-69
2022/12/03 06:27:11;;;;;;;52.90;31.40;;;;;;;2.87;100.00;93898.81;5110059;28;20100;-69
2022/12/03 06:29:37;;;;;;;44.30;29.73;;;;;;;2.84;100.00;93902.44;5111303;27;20051;-69
2022/12/03 06:32:05;;;;;;;41.15;25.67;;;;;;;2.84;100.00;93899.09;5110861;28;20043;-70
2022/12/03 06:34:31;;;;;;;40.65;24.70;;;;;;;2.83;100.00;93898.31;5110936;28;20051;-69
2022/12/03 06:37:00;;;;;;;36.97;24.20;;;;;;;2.84;100.00;93899.09;5109343;28;20047;-69
2022/12/03 06:39:26;;;;;;;39.03;26.88;;;;;;;2.86;100.00;93887.88;5105344;28;20051;-69
2022/12/03 06:41:53;;;;;;;45.75;27.75;;;;;;;2.85;100.00;93882.94;5108735;28;20044;-70
2022/12/03 06:44:20;;;;;;;37.25;25.23;;;;;;;2.91;100.00;93889.97;5102691;28;20047;-70
2022/12/03 06:46:47;;;;;;;41.63;26.02;;;;;;;2.93;100.00;93891.41;5099820;28;20112;-70
2022/12/03 06:49:13;;;;;;;38.75;27.35;;;;;;;2.96;100.00;93890.31;5095241;28;20060;-70
2022/12/03 06:51:40;;;;;;;34.85;25.77;;;;;;;3.01;100.00;93894.97;5105583;28;20044;-70
2022/12/03 06:54:08;;;;;;;33.45;23.65;;;;;;;3.03;100.00;93901.50;5102588;28;20120;-69
2022/12/03 06:56:35;;;;;;;34.13;24.60;;;;;;;3.05;100.00;93903.88;5110842;28;20047;-69
2022/12/03 06:59:02;;;;;;;42.58;29.00;;;;;;;3.10;100.00;93906.78;5110972;28;20096;-70
2022/12/03 07:01:28;;;;;;;66.25;46.85;;;;;;;3.16;100.00;93913.03;5110394;28;20507;-70
2022/12/03 07:03:55;;;;;;;50.33;36.90;;;;;;;3.20;100.00;93912.56;5110619;28;20104;-69
2022/12/03 07:06:22;;;;;;;61.90;41.28;;;;;;;3.26;100.00;93910.41;5110840;28;20108;-69
2022/12/03 07:08:48;;;;;;;74.72;48.35;;;;;;;3.31;100.00;93908.22;5110254;28;20448;-69
2022/12/03 07:11:32;;;;;;;60.78;40.45;;;;;;;3.29;100.00;93905.81;5110712;28;20055;-69
2022/12/03 07:14:00;;;;;;;73.75;46.63;;;;;;;3.41;100.00;93915.75;5107907;28;20055;-70
2022/12/03 07:16:27;;;;;;;62.88;40.75;;;;;;;3.31;100.00;93898.88;5110150;28;20080;-70
2022/12/03 07:18:54;;;;;;;76.95;48.75;;;;;;;3.53;100.00;93924.75;5110500;28;20126;-70
2022/12/03 07:21:21;;;;;;;113.97;71.25;;;;;;;3.59;100.00;93931.75;5110215;28;20044;-70
2022/12/03 07:23:48;;;;;;;70.07;46.28;;;;;;;3.66;100.00;93926.88;5109954;28;20051;-70
2022/12/03 07:26:14;;;;;;;53.70;37.90;;;;;;;3.71;100.00;93932.28;5110358;28;20104;-70
2022/12/03 07:28:43;;;;;;;48.88;36.00;;;;;;;3.76;100.00;93929.34;5110130;28;20105;-70
2022/12/03 07:31:09;;;;;;;50.35;33.72;;;;;;;3.88;100.00;93934.94;5110227;28;20491;-70
2022/12/03 07:33:36;;;;;;;46.42;32.60;;;;;;;3.94;100.00;93931.78;5110087;28;20096;-70
2022/12/03 07:36:03;;;;;;;46.58;29.65;;;;;;;3.98;100.00;93930.56;5109975;28;20208;-70
2022/12/03 07:38:29;;;;;;;43.05;27.70;;;;;;;4.02;100.00;93928.50;5110046;28;20144;-70
2022/12/03 07:40:56;;;;;;;48.25;32.70;;;;;;;4.08;100.00;93932.19;5091784;28;20052;-70
2022/12/03 07:43:23;;;;;;;40.63;25.02;;;;;;;4.07;100.00;93917.91;5101914;28;20472;-70
2022/12/03 07:45:51;;;;;;;38.95;27.05;;;;;;;4.20;100.00;93935.25;5109769;28;20560;-70
2022/12/03 07:48:18;;;;;;;35.58;24.23;;;;;;;4.24;100.00;93922.09;5109793;28;20059;-70
2022/12/03 07:50:44;;;;;;;45.25;29.13;;;;;;;4.32;100.00;93928.16;5103789;28;20056;-70
2022/12/03 07:53:11;;;;;;;49.20;30.98;;;;;;;4.46;100.00;93931.88;5108669;28;20059;-69
2022/12/03 07:55:38;;;;;;;49.60;30.52;;;;;;;4.50;100.00;93931.41;5111403;28;20071;-70
2022/12/03 07:58:05;;;;;;;39.75;27.65;;;;;;;4.53;100.00;93931.09;5113641;28;20105;-70
2022/12/03 08:00:31;;;;;;;45.20;29.40;;;;;;;4.61;100.00;93929.53;5113849;28;20043;-69
2022/12/03 08:03:00;;;;;;;42.22;29.73;;;;;;;4.67;100.00;93934.00;5114306;28;20054;-69
2022/12/03 08:05:28;;;;;;;45.40;33.95;;;;;;;4.76;100.00;93933.06;5113133;28;20060;-69
2022/12/03 08:07:55;;;;;;;37.38;27.52;;;;;;;4.87;100.00;93936.28;5114276;28;20043;-69
2022/12/03 08:10:23;;;;;;;39.20;30.73;;;;;;;4.84;100.00;93942.47;5113936;28;20452;-69
2022/12/03 08:12:50;;;;;;;43.92;31.80;;;;;;;4.91;100.00;93945.22;5113853;28;20039;-69
2022/12/03 08:15:19;;;;;;;40.47;28.38;;;;;;;4.76;100.00;93915.25;5114092;28;20100;-70
2022/12/03 08:17:51;;;;;;;47.03;28.85;;;;;;;5.04;100.00;93949.81;5113507;28;20097;-70
2022/12/03 08:20:21;;;;;;;36.28;26.13;;;;;;;5.07;100.00;93944.44;5113984;28;20085;-69
2022/12/03 08:22:50;;;;;;;31.25;21.02;;;;;;;5.17;100.00;93952.72;5113564;28;20445;-69
2022/12/03 08:25:21;;;;;;;32.50;22.33;;;;;;;5.26;100.00;93950.97;5113625;28;20564;-69
2022/12/03 08:27:47;;;;;;;32.63;23.02;;;;;;;5.33;100.00;93953.69;5113672;28;20097;-70
2022/12/03 08:30:16;;;;;;;29.55;21.40;;;;;;;5.31;100.00;93948.75;5113537;28;20567;-69
2022/12/03 08:32:43;;;;;;;32.60;22.98;;;;;;;5.19;100.00;93942.38;5113030;28;20100;-69
2022/12/03 08:35:12;;;;;;;34.53;24.45;;;;;;;5.32;100.00;93963.09;5113335;28;20056;-69
2022/12/03 08:37:40;;;;;;;45.90;28.75;;;;;;;5.45;100.00;93964.34;5113386;28;20086;-69
2022/12/03 08:40:23;;;;;;;40.33;28.65;;;;;;;5.57;100.00;93954.66;5112791;28;20056;-69
2022/12/03 08:42:49;;;;;;;38.40;27.75;;;;;;;5.38;100.00;93927.72;5107810;28;20047;-69
2022/12/03 08:45:40;;;;;;;41.72;29.73;;;;;;;5.74;100.00;93958.00;5111693;28;21124;-69
2022/12/03 08:48:35;;;;;;;45.85;30.83;;;;;;;5.38;100.00;93951.47;5113227;27;20044;-69
2022/12/03 08:51:04;;;;;;;;;;;;;;;5.62;100.00;93963.38;5113368;28;20097;-69
2022/12/03 08:53:35;;;;;;;48.17;32.75;;;;;;;5.68;100.00;93956.88;5113163;28;19936;-69
2022/12/03 08:56:04;;;;;;;51.17;33.10;;;;;;;5.79;100.00;93960.06;5112926;28;20051;-69
2022/12/03 08:58:38;;;;;;;43.80;30.10;;;;;;;5.89;100.00;93953.03;5112981;28;20078;-69
2022/12/03 09:01:39;;;;;;;38.55;26.70;;;;;;;5.80;100.00;93959.09;5112811;28;20105;-70
2022/12/03 09:04:21;;;;;;;37.40;24.40;;;;;;;5.74;100.00;93952.91;5049504;28;20053;-70
2022/12/03 09:06:47;;;;;;;35.35;22.27;;;;;;;5.66;100.00;93946.06;5105292;28;20044;-70
2022/12/03 09:09:16;;;;;;;39.97;23.98;;;;;;;5.68;100.00;93939.03;5112578;28;20114;-69
2022/12/03 09:11:43;;;;;;;39.17;25.13;;;;;;;5.64;100.00;93902.06;5112926;27;20052;-69
2022/12/03 09:14:10;;;;;;;39.03;24.58;;;;;;;5.80;100.00;93934.41;5112471;28;20127;-70
2022/12/03 09:16:36;;;;;;;37.80;23.95;;;;;;;5.64;100.00;93937.75;5112566;28;20503;-69
2022/12/03 09:19:05;;;;;;;35.05;21.73;;;;;;;5.71;100.00;93935.38;5112382;28;20114;-70
2022/12/03 09:21:31;;;;;;;40.65;24.00;;;;;;;5.71;100.00;93933.63;5112711;28;20047;-70
2022/12/03 09:23:58;;;;;;;35.13;23.23;;;;;;;5.87;100.00;93907.28;5112283;28;20100;-70
2022/12/03 09:26:27;;;;;;;52.10;29.63;;;;;;;6.03;100.00;93928.66;5112506;28;20051;-70
2022/12/03 09:28:54;;;;;;;39.33;24.73;;;;;;;5.89;100.00;93924.97;5112213;28;20048;-70
2022/12/03 09:31:20;;;;;;;43.60;23.38;;;;;;;5.72;100.00;93929.31;5112203;28;20081;-69
2022/12/03 09:33:47;;;;;;;41.45;24.48;;;;;;;5.74;100.00;93919.75;5111724;28;20079;-69
2022/12/03 09:36:14;;;;;;;37.70;23.05;;;;;;;5.68;100.00;93922.94;5112555;28;20043;-69
2022/12/03 09:38:41;;;;;;;38.58;22.80;;;;;;;5.39;100.00;93914.84;5112031;28;20180;-69
2022/12/03 09:41:09;;;;;;;44.28;26.00;;;;;;;5.29;100.00;93915.00;5112573;28;20044;-70
2022/12/03 09:43:37;;;;;;;39.22;23.85;;;;;;;5.39;100.00;93906.41;5098538;28;20043;-70
2022/12/03 09:46:04;;;;;;;39.97;21.92;;;;;;;5.59;100.00;93901.75;5111889;28;20047;-69
2022/12/03 09:48:31;;;;;;;51.58;29.10;;;;;;;5.51;100.00;93886.50;5111967;28;20047;-69
2022/12/03 09:50:58;;;;;;;72.05;35.97;;;;;;;5.70;100.00;93901.41;5092176;28;20515;-69
2022/12/03 09:53:27;;;;;;;33.45;19.83;;;;;;;5.71;100.00;93892.03;5096689;28;20097;-70
2022/12/03 09:55:54;;;;;;;31.98;18.95;;;;;;;5.86;100.00;93904.91;5110891;28;20044;-70
2022/12/03 09:58:21;;;;;;;32.08;19.77;;;;;;;6.05;100.00;93901.22;5112203;28;20047;-70
2022/12/03 10:00:51;;;;;;;32.63;19.77;;;;;;;6.13;100.00;93900.41;5112009;28;20051;-70
2022/12/03 10:03:20;;;;;;;33.60;18.58;;;;;;;6.25;100.00;93896.50;5111852;28;20179;-70
2022/12/03 10:05:47;;;;;;;36.28;20.42;;;;;;;6.44;100.00;93889.44;5111330;28;20048;-70
2022/12/03 10:08:19;;;;;;;32.63;18.98;;;;;;;6.76;100.00;93889.44;5111943;28;20043;-70
2022/12/03 10:10:48;;;;;;;33.22;19.42;;;;;;;6.99;100.00;93888.66;5111477;28;20402;-70
2022/12/03 10:13:21;;;;;;;33.45;19.10;;;;;;;6.97;100.00;93888.00;5110792;28;20039;-70
2022/12/03 10:15:48;;;;;;;32.80;19.75;;;;;;;6.95;100.00;93883.09;5111768;28;20108;-70
2022/12/03 10:18:20;;;;;;;25.10;16.45;;;;;;;7.06;100.00;93892.91;5111121;28;20166;-70
2022/12/03 10:20:48;;;;;;;31.00;17.80;;;;;;;7.18;100.00;93887.38;5111128;28;20845;-70
2022/12/03 10:23:25;;;;;;;30.50;16.98;;;;;;;7.33;100.00;93897.66;5111659;28;20083;-70
2022/12/03 10:25:55;;;;;;;30.88;18.15;;;;;;;7.37;100.00;93888.69;5110943;28;20104;-70
2022/12/03 10:28:31;;;;;;;29.23;18.00;;;;;;;7.25;100.00;93887.47;5111321;28;20490;-69
2022/12/03 10:30:58;;;;;;;28.08;19.50;;;;;;;7.32;100.00;93885.84;5111423;28;20051;-69
2022/12/03 10:33:32;;;;;;;30.05;18.33;;;;;;;7.39;100.00;93879.06;5110964;28;20495;-69
2022/12/03 10:36:19;;;;;;;29.77;19.15;;;;;;;7.68;100.00;93879.31;5111495;28;20410;-70
2022/12/03 10:38:46;;;;;;;31.80;20.33;;;;;;;7.83;100.00;93877.53;5110529;28;20051;-71
2022/12/03 10:41:24;;;;;;;29.13;19.27;;;;;;;7.73;100.00;93875.25;5111186;28;20051;-70
2022/12/03 10:43:51;;;;;;;31.35;18.95;;;;;;;7.83;100.00;93881.88;5100122;28;20044;-70
2022/12/03 10:46:19;;;;;;;34.58;20.42;;;;;;;7.80;100.00;93885.56;5110929;28;20563;-70
2022/12/03 10:49:08;;;;;;;30.23;19.42;;;;;;;7.63;100.00;93887.47;5110719;28;20088;-70
2022/12/03 10:51:35;;;;;;;35.60;20.48;;;;;;;7.48;100.00;93877.22;5110488;28;20048;-70
2022/12/03 10:54:02;;;;;;;41.05;22.73;;;;;;;7.78;100.00;93876.47;5110618;28;20048;-70
2022/12/03 10:56:29;;;;;;;41.67;21.25;;;;;;;7.84;100.00;93879.16;5110777;28;20043;-70
2022/12/03 10:58:56;;;;;;;39.20;20.45;;;;;;;7.69;100.00;93878.31;5110992;28;20100;-70
2022/12/03 11:01:25;;;;;;;41.40;23.35;;;;;;;7.72;100.00;93877.97;5110640;28;20104;-70
2022/12/03 11:03:55;;;;;;;41.45;22.92;;;;;;;7.87;100.00;93876.22;5110616;28;20124;-70
2022/12/03 11:06:23;;;;;;;42.92;24.38;;;;;;;7.90;100.00;93864.84;5110536;28;20055;-70
2022/12/03 11:08:51;;;;;;;43.70;23.23;;;;;;;8.09;100.00;93867.81;5109876;28;20073;-70
2022/12/03 11:11:23;;;;;;;43.15;24.55;;;;;;;8.06;100.00;93873.31;5110425;28;20054;-70
2022/12/03 11:13:52;;;;;;;48.45;26.02;;;;;;;8.08;100.00;93874.72;5097217;28;20048;-70
2022/12/03 11:17:07;;;;;;;44.00;21.77;;;;;;;8.05;100.00;93874.28;5104225;28;20091;-70
2022/12/03 11:19:49;;;;;;;54.17;27.42;;;;;;;8.16;100.00;93863.59;5110049;28;20410;-70
2022/12/03 11:22:41;;;;;;;56.60;32.70;;;;;;;8.09;100.00;93855.03;5110237;28;20547;-70
2022/12/03 11:25:48;;;;;;;41.95;23.15;;;;;;;8.00;100.00;93864.56;5104077;28;20079;-70
2022/12/03 11:28:54;;;;;;;42.50;23.15;;;;;;;7.68;100.00;93854.50;5108137;28;20043;-70
2022/12/03 11:31:36;;;;;;;48.72;27.33;;;;;;;7.93;100.00;93861.13;5046426;28;20203;-70
2022/12/03 11:34:48;;;;;;;41.55;23.70;;;;;;;7.82;100.00;93855.47;5105787;28;20622;-70
2022/12/03 11:37:27;;;;;;;40.50;22.65;;;;;;;8.08;100.00;93858.56;5109880;28;20139;-70
2022/12/03 11:40:33;;;;;;;39.25;20.67;;;;;;;8.15;100.00;93860.25;5109732;28;20112;-70
2022/12/03 11:44:09;;;;;;;39.70;19.70;;;;;;;8.16;100.00;93843.91;5085518;28;20066;-70
2022/12/03 11:46:43;;;;;;;46.95;25.30;;;;;;;8.39;100.00;93847.31;5098558;28;20043;-70
2022/12/03 11:49:37;;;;;;;39.40;23.20;;;;;;;8.51;100.00;93848.44;5109345;28;20054;-70
2022/12/03 11:52:23;;;;;;;39.17;20.35;;;;;;;8.21;100.00;93858.75;5093923;28;20456;-70